Time;durP1;ratioP1;P1;durP2;ratioP2;P2;SDS_P1;SDS_P2;PMS_P1;PMS_P2;Temp;Humidity;BMP_temperature;BMP_pressure;BME280_temperature;BME280_humidity;BME280_pressure;Samples;Min_cycle;Max_cycle;Signal;HPM_P1;HPM_P2
2021/06/29 00:00:08;;;;;;;2.00;0.98;;;22.10;94.60;22.10;99342.00;;;;341211;28;95934;-96
2021/06/29 00:00:19;;;;;;;3.03;1.00;;;22.10;94.60;22.20;99343.00;;;;344324;28;90391;-94
2021/06/29 00:00:31;;;;;;;3.17;0.90;;;22.10;94.60;22.30;99343.00;;;;341502;28;93416;-96
2021/06/29 00:00:43;;;;;;;2.75;0.90;;;22.10;94.50;22.30;99340.00;;;;342588;28;91941;-95
2021/06/29 00:00:55;;;;;;;2.60;1.00;;;22.10;94.50;22.20;99340.00;;;;341094;28;96480;-96
2021/06/29 00:01:07;;;;;;;2.72;1.08;;;22.20;94.50;22.10;99342.00;;;;342503;28;91978;-96
2021/06/29 00:01:19;;;;;;;2.60;1.08;;;22.20;94.50;22.10;99341.00;;;;342798;28;93082;-96
2021/06/29 00:01:31;;;;;;;1.55;0.93;;;22.20;94.50;22.10;99338.00;;;;343968;28;91862;-96
2021/06/29 00:01:45;;;;;;;1.35;0.90;;;22.20;94.50;22.10;99335.00;;;;342707;28;97165;-96
2021/06/29 00:01:56;;;;;;;2.08;0.80;;;22.20;94.80;22.20;99338.00;;;;342671;28;91156;-96
2021/06/29 00:02:08;;;;;;;3.78;0.82;;;22.20;94.50;22.20;99342.00;;;;342670;28;94391;-96
2021/06/29 00:02:23;;;;;;;3.85;0.80;;;22.20;94.40;22.10;99340.00;;;;343251;28;91418;-94
2021/06/29 00:02:35;;;;;;;2.25;0.90;;;22.20;94.40;22.10;99338.00;;;;343963;28;92432;-94
2021/06/29 00:02:47;;;;;;;2.97;1.00;;;22.20;94.40;22.10;99334.00;;;;342480;28;91140;-96
2021/06/29 00:03:04;;;;;;;2.63;0.90;;;22.20;94.50;22.10;99345.00;;;;342746;28;92786;-96
2021/06/29 00:03:16;;;;;;;1.58;0.98;;;22.20;94.50;22.10;99338.00;;;;342592;28;91196;-96
2021/06/29 00:03:28;;;;;;;1.60;0.80;;;22.20;94.50;22.10;99339.00;;;;342663;28;97071;-96
2021/06/29 00:03:40;;;;;;;1.98;0.77;;;22.20;94.50;22.20;99340.00;;;;342578;28;91949;-95
2021/06/29 00:03:52;;;;;;;2.10;0.90;;;22.20;94.50;22.20;99342.00;;;;341246;28;95900;-96
2021/06/29 00:04:04;;;;;;;2.00;1.00;;;22.20;94.50;22.10;99340.00;;;;342692;28;91113;-93
2021/06/29 00:04:16;;;;;;;1.70;0.98;;;22.20;94.50;22.10;99340.00;;;;344084;28;93066;-96
2021/06/29 00:04:28;;;;;;;1.73;0.95;;;22.20;94.50;22.10;99343.00;;;;342339;28;91336;-96
2021/06/29 00:04:40;;;;;;;2.00;1.10;;;22.20;94.40;22.10;99344.00;;;;344162;28;92793;-95
2021/06/29 00:04:52;;;;;;;2.20;1.20;;;22.20;94.40;22.10;99338.00;;;;340973;28;92237;-96
2021/06/29 00:05:05;;;;;;;2.15;1.15;;;22.20;94.40;22.00;99339.00;;;;341001;28;97057;-93
2021/06/29 00:05:16;;;;;;;2.40;0.90;;;22.20;94.40;22.00;99343.00;;;;342271;28;91157;-95
2021/06/29 00:05:29;;;;;;;2.47;0.80;;;22.20;94.50;22.00;99343.00;;;;343673;28;94451;-96
2021/06/29 00:05:41;;;;;;;2.80;1.00;;;22.20;94.50;22.00;99341.00;;;;343856;28;91957;-96
2021/06/29 00:05:53;;;;;;;2.45;1.02;;;22.20;94.50;22.10;99342.00;;;;343895;28;93668;-96
2021/06/29 00:06:05;;;;;;;3.50;1.10;;;22.20;94.50;22.10;99341.00;;;;343925;28;91888;-96
2021/06/29 00:06:17;;;;;;;3.92;1.00;;;22.20;94.50;22.10;99337.00;;;;343545;28;95469;-95
2021/06/29 00:06:28;;;;;;;2.97;0.95;;;22.20;94.50;22.10;99341.00;;;;340060;28;90573;-96
2021/06/29 00:06:40;;;;;;;1.60;0.80;;;22.20;94.50;22.10;99338.00;;;;342774;28;91762;-96
2021/06/29 00:06:52;;;;;;;1.70;0.93;;;22.20;94.70;22.10;99342.00;;;;342490;28;91274;-94
2021/06/29 00:07:04;;;;;;;2.53;1.15;;;22.20;94.60;22.10;99347.00;;;;341442;28;93412;-96
2021/06/29 00:07:16;;;;;;;3.08;1.23;;;22.20;94.60;22.10;99346.00;;;;341246;28;91328;-96
2021/06/29 00:07:27;;;;;;;2.80;1.10;;;22.20;94.60;22.10;99342.00;;;;342780;28;93993;-94
2021/06/29 00:07:39;;;;;;;1.83;0.82;;;22.20;94.60;22.10;99341.00;;;;339867;28;91860;-96
2021/06/29 00:07:51;;;;;;;2.42;0.90;;;22.20;94.60;22.10;99337.00;;;;341357;28;94527;-96
2021/06/29 00:08:03;;;;;;;2.28;0.80;;;22.20;94.60;22.10;99342.00;;;;342484;28;92052;-96
2021/06/29 00:08:15;;;;;;;2.70;0.90;;;22.20;94.70;22.20;99338.00;;;;344066;28;94207;-96
2021/06/29 00:08:27;;;;;;;2.40;0.95;;;22.20;94.70;22.20;99344.00;;;;342147;28;91869;-96
2021/06/29 00:08:52;;;;;;;2.33;1.00;;;22.20;94.70;22.20;99340.00;;;;343498;28;95912;-96
2021/06/29 00:09:06;;;;;;;2.15;0.85;;;22.30;94.70;22.20;99348.00;;;;342639;28;91971;-96
2021/06/29 00:09:23;;;;;;;1.73;0.82;;;22.30;94.70;22.20;99343.00;;;;342943;28;93347;-96
2021/06/29 00:09:34;;;;;;;2.22;0.80;;;22.30;94.70;22.10;99334.00;;;;343970;28;91186;-94
2021/06/29 00:09:46;;;;;;;2.08;0.73;;;22.30;94.70;22.10;99334.00;;;;345809;28;93670;-96
2021/06/29 00:09:58;;;;;;;2.45;0.70;;;22.30;94.70;22.10;99340.00;;;;341550;28;91084;-96
2021/06/29 00:10:11;;;;;;;2.40;0.80;;;22.20;94.60;22.10;99335.00;;;;341559;28;94534;-96
2021/06/29 00:10:26;;;;;;;2.70;0.82;;;22.30;94.70;22.10;99334.00;;;;341435;28;91024;-96
2021/06/29 00:10:38;;;;;;;1.83;0.75;;;22.30;94.60;22.20;99336.00;;;;341453;28;95635;-96
2021/06/29 00:10:50;;;;;;;1.85;0.98;;;22.30;94.70;22.20;99335.00;;;;343885;28;90551;-94
2021/06/29 00:11:02;;;;;;;2.70;1.25;;;22.30;94.70;22.20;99346.00;;;;341695;28;92790;-96
2021/06/29 00:11:16;;;;;;;3.30;1.38;;;22.30;94.70;22.20;99343.00;;;;339711;28;91168;-95
2021/06/29 00:11:28;;;;;;;3.45;1.17;;;22.30;94.70;22.20;99335.00;;;;342459;28;93025;-95
2021/06/29 00:11:40;;;;;;;2.85;1.23;;;22.30;94.60;22.10;99345.00;;;;341605;28;91143;-94
2021/06/29 00:11:52;;;;;;;2.55;1.20;;;22.30;94.60;22.10;99333.00;;;;342552;28;93410;-96
2021/06/29 00:12:04;;;;;;;2.75;1.20;;;22.30;94.60;22.10;99338.00;;;;342850;28;91111;-95
2021/06/29 00:12:16;;;;;;;2.65;1.40;;;22.30;94.60;22.10;99339.00;;;;343042;28;92674;-95
2021/06/29 00:12:28;;;;;;;2.20;1.15;;;22.30;94.60;22.10;99339.00;;;;344161;28;91886;-96
2021/06/29 00:12:40;;;;;;;2.20;0.90;;;22.30;94.60;22.00;99336.00;;;;344426;28;96760;-96
2021/06/29 00:12:55;;;;;;;2.40;0.80;;;22.30;94.70;22.10;99336.00;;;;342861;28;90612;-95
2021/06/29 00:13:07;;;;;;;2.13;0.70;;;22.30;94.70;22.20;99347.00;;;;341531;28;96088;-93
2021/06/29 00:13:21;;;;;;;1.73;0.85;;;22.30;94.70;22.20;99342.00;;;;340153;28;91961;-96
2021/06/29 00:13:33;;;;;;;2.00;0.90;;;22.30;94.70;22.30;99335.00;;;;341751;28;92973;-95
2021/06/29 00:13:45;;;;;;;1.88;0.95;;;22.30;94.80;22.40;99341.00;;;;341719;28;91951;-96
2021/06/29 00:13:56;;;;;;;2.03;0.85;;;22.30;94.70;22.50;99334.00;;;;341802;28;92755;-94
2021/06/29 00:14:09;;;;;;;3.45;1.00;;;22.30;94.60;22.40;99341.00;;;;342998;28;91155;-96
2021/06/29 00:14:21;;;;;;;3.65;1.00;;;22.40;94.60;22.30;99337.00;;;;342575;28;93161;-96
2021/06/29 00:14:36;;;;;;;2.05;1.20;;;22.40;94.60;22.20;99332.00;;;;341488;28;91219;-96
2021/06/29 00:14:47;;;;;;;2.03;1.20;;;22.40;94.60;22.10;99340.00;;;;341479;28;96141;-93
2021/06/29 00:14:59;;;;;;;1.63;0.90;;;22.40;94.60;22.10;99338.00;;;;343031;28;91274;-96
2021/06/29 00:15:12;;;;;;;1.98;0.73;;;22.30;94.60;22.20;99339.00;;;;341825;28;93640;-96
2021/06/29 00:15:26;;;;;;;1.80;0.70;;;22.30;94.60;22.30;99340.00;;;;342683;28;92000;-95
2021/06/29 00:15:38;;;;;;;1.75;0.80;;;22.40;94.60;22.20;99337.00;;;;340322;28;94846;-96
2021/06/29 00:15:50;;;;;;;2.00;0.90;;;22.40;94.60;22.20;99342.00;;;;341497;28;92021;-96
2021/06/29 00:16:01;;;;;;;2.05;1.00;;;22.40;94.60;22.20;99337.00;;;;344527;28;92616;-96
2021/06/29 00:16:13;;;;;;;1.80;0.82;;;22.40;94.60;22.30;99341.00;;;;341477;28;91143;-95
2021/06/29 00:16:25;;;;;;;2.55;0.85;;;22.40;94.60;22.30;99336.00;;;;345405;28;94827;-96
2021/06/29 00:16:37;;;;;;;2.88;1.00;;;22.40;94.60;22.30;99341.00;;;;344235;28;92018;-94
2021/06/29 00:16:49;;;;;;;2.88;0.95;;;22.40;94.90;22.30;99343.00;;;;344303;28;92070;-93
2021/06/29 00:17:01;;;;;;;2.15;0.85;;;22.40;94.60;22.30;99341.00;;;;340154;28;91010;-96
2021/06/29 00:17:13;;;;;;;1.50;0.90;;;22.40;94.60;22.30;99338.00;;;;343931;28;95552;-96
2021/06/29 00:17:25;;;;;;;1.58;1.00;;;22.40;94.60;22.30;99342.00;;;;343864;28;91227;-96
2021/06/29 00:17:37;;;;;;;2.00;1.10;;;22.40;94.60;22.30;99341.00;;;;342931;28;93369;-96
2021/06/29 00:17:49;;;;;;;2.40;1.15;;;22.40;94.60;22.30;99344.00;;;;343524;28;93275;-96
2021/06/29 00:18:01;;;;;;;2.33;1.20;;;22.40;94.60;22.30;99343.00;;;;341556;28;95793;-96
2021/06/29 00:18:13;;;;;;;2.95;1.25;;;22.40;94.60;22.30;99339.00;;;;342692;28;91231;-96
2021/06/29 00:18:25;;;;;;;2.75;1.17;;;22.40;94.60;22.30;99336.00;;;;344415;28;94143;-96
2021/06/29 00:18:36;;;;;;;2.22;1.10;;;22.40;94.60;22.30;99337.00;;;;345651;28;91204;-96
2021/06/29 00:18:49;;;;;;;1.77;0.93;;;22.40;94.60;22.30;99341.00;;;;343066;28;93238;-96
2021/06/29 00:19:01;;;;;;;1.70;0.90;;;22.40;94.60;22.30;99342.00;;;;343015;28;90286;-96
2021/06/29 00:19:13;;;;;;;1.75;0.88;;;22.40;94.60;22.30;99335.00;;;;343116;28;93386;-96
2021/06/29 00:19:25;;;;;;;1.42;0.73;;;22.40;94.60;22.20;99342.00;;;;341635;28;91083;-96
2021/06/29 00:19:37;;;;;;;2.60;1.00;;;22.40;94.60;22.20;99338.00;;;;341679;28;96230;-96
2021/06/29 00:19:49;;;;;;;2.50;1.10;;;22.40;94.60;22.10;99334.00;;;;342994;28;91947;-96
2021/06/29 00:20:01;;;;;;;1.48;0.98;;;22.40;94.90;22.10;99344.00;;;;341696;28;93028;-95
2021/06/29 00:20:14;;;;;;;1.52;0.80;;;22.40;94.70;22.20;99348.00;;;;341246;28;91189;-93
2021/06/29 00:20:26;;;;;;;2.38;0.77;;;22.40;94.70;22.20;99341.00;;;;342623;28;95314;-95
2021/06/29 00:20:38;;;;;;;2.45;0.82;;;22.40;94.70;22.20;99343.00;;;;341409;28;91987;-93
2021/06/29 00:20:50;;;;;;;2.58;1.08;;;22.40;94.60;22.20;99338.00;;;;343035;28;93572;-96
2021/06/29 00:21:02;;;;;;;3.92;1.40;;;22.40;94.60;22.20;99339.00;;;;341489;28;91415;-95
2021/06/29 00:21:13;;;;;;;4.68;1.40;;;22.40;94.60;22.20;99334.00;;;;341796;28;95671;-96
2021/06/29 00:21:25;;;;;;;4.38;1.50;;;22.40;94.60;22.30;99336.00;;;;343189;28;91988;-96
2021/06/29 00:21:37;;;;;;;3.75;1.33;;;22.40;94.60;22.40;99345.00;;;;343643;28;92871;-96
2021/06/29 00:21:49;;;;;;;4.00;1.27;;;22.40;94.60;22.30;99338.00;;;;343292;28;92019;-96
2021/06/29 00:22:01;;;;;;;3.47;1.40;;;22.40;94.60;22.30;99338.00;;;;340738;28;96275;-94
2021/06/29 00:22:13;;;;;;;2.78;1.50;;;22.40;94.60;22.30;99340.00;;;;341985;28;91181;-95
2021/06/29 00:22:25;;;;;;;2.35;1.45;;;22.40;94.60;22.30;99339.00;;;;342207;28;95671;-96
2021/06/29 00:22:36;;;;;;;3.05;1.52;;;22.40;94.60;22.40;99341.00;;;;342031;28;91166;-96
2021/06/29 00:22:48;;;;;;;3.28;1.50;;;22.40;94.80;22.30;99340.00;;;;342136;28;96382;-95
2021/06/29 00:23:00;;;;;;;2.67;1.15;;;22.40;94.50;22.30;99337.00;;;;342114;28;91078;-96
2021/06/29 00:23:12;;;;;;;1.90;1.10;;;22.40;94.60;22.20;99345.00;;;;343682;28;93553;-96
2021/06/29 00:23:24;;;;;;;1.65;1.02;;;22.40;94.50;22.20;99344.00;;;;342438;28;91124;-95
2021/06/29 00:23:39;;;;;;;1.70;1.10;;;22.40;94.50;22.30;99335.00;;;;344302;28;95651;-96
2021/06/29 00:23:51;;;;;;;1.90;1.10;;;22.40;94.50;22.30;99333.00;;;;345423;28;91251;-96
2021/06/29 00:24:03;;;;;;;2.05;1.23;;;22.40;94.60;22.40;99343.00;;;;346205;28;96164;-96
2021/06/29 00:24:15;;;;;;;2.13;1.20;;;22.40;94.60;22.50;99345.00;;;;344611;28;91145;-96
2021/06/29 00:24:27;;;;;;;2.03;1.15;;;22.50;94.60;22.50;99342.00;;;;343401;28;96031;-96
2021/06/29 00:24:39;;;;;;;2.42;1.10;;;22.40;94.50;22.50;99341.00;;;;341988;28;91136;-96
2021/06/29 00:24:51;;;;;;;2.20;1.00;;;22.50;94.50;22.40;99342.00;;;;343365;28;96393;-96
2021/06/29 00:25:04;;;;;;;2.25;0.90;;;22.50;94.50;22.40;99335.00;;;;344707;28;90424;-96
2021/06/29 00:25:17;;;;;;;2.20;1.00;;;22.50;94.50;22.50;99346.00;;;;340884;28;94249;-96
2021/06/29 00:25:29;;;;;;;1.85;1.02;;;22.50;94.50;22.50;99343.00;;;;341882;28;91220;-96
2021/06/29 00:25:41;;;;;;;2.65;1.27;;;22.50;94.50;22.30;99342.00;;;;343409;28;95461;-95
2021/06/29 00:25:53;;;;;;;3.30;1.45;;;22.50;94.40;22.20;99341.00;;;;343503;28;91031;-95
2021/06/29 00:26:06;;;;;;;3.28;1.35;;;22.50;94.40;22.30;99342.00;;;;342174;28;93298;-96
2021/06/29 00:26:18;;;;;;;2.42;1.10;;;22.40;94.40;22.30;99342.00;;;;345087;28;91291;-95
2021/06/29 00:26:30;;;;;;;2.95;1.20;;;22.40;94.40;22.40;99339.00;;;;345043;28;95845;-96
2021/06/29 00:26:42;;;;;;;3.70;1.35;;;22.50;94.50;22.30;99344.00;;;;347000;28;91859;-95
2021/06/29 00:26:54;;;;;;;3.92;1.55;;;22.50;94.50;22.20;99344.00;;;;343555;28;93068;-96
2021/06/29 00:27:07;;;;;;;2.78;1.40;;;22.40;94.40;22.20;99335.00;;;;343430;28;90439;-96
2021/06/29 00:27:18;;;;;;;1.90;1.23;;;22.50;94.50;22.10;99344.00;;;;343770;28;95469;-96
2021/06/29 00:27:30;;;;;;;1.90;1.00;;;22.40;94.50;22.10;99337.00;;;;343417;28;92001;-96
2021/06/29 00:27:43;;;;;;;3.90;1.02;;;22.40;94.60;22.10;99343.00;;;;342127;28;93391;-96
2021/06/29 00:27:55;;;;;;;5.72;1.10;;;22.40;94.60;22.20;99346.00;;;;342008;28;91014;-96
2021/06/29 00:28:06;;;;;;;5.25;1.10;;;22.40;94.60;22.20;99352.00;;;;341936;28;97528;-96
2021/06/29 00:28:18;;;;;;;4.50;1.02;;;22.40;94.60;22.30;99342.00;;;;344580;28;91157;-96
2021/06/29 00:28:30;;;;;;;2.47;1.20;;;22.40;94.70;22.30;99346.00;;;;344838;28;93237;-96
2021/06/29 00:28:43;;;;;;;2.25;1.40;;;22.40;94.60;22.20;99347.00;;;;341672;28;91209;-96
2021/06/29 00:28:57;;;;;;;2.63;1.40;;;22.40;94.60;22.10;99348.00;;;;343118;28;92878;-96
2021/06/29 00:29:09;;;;;;;2.47;1.23;;;22.40;94.60;22.10;99348.00;;;;344339;28;90386;-95
2021/06/29 00:29:20;;;;;;;1.92;1.05;;;22.40;94.60;22.20;99341.00;;;;342850;28;95460;-96
2021/06/29 00:29:32;;;;;;;2.20;1.00;;;22.40;94.60;22.10;99346.00;;;;342649;28;91222;-94
2021/06/29 00:29:44;;;;;;;2.47;1.10;;;22.40;94.60;22.10;99355.00;;;;344033;28;95393;-95
2021/06/29 00:29:56;;;;;;;2.40;1.33;;;22.40;94.60;22.10;99346.00;;;;344024;28;91180;-96
2021/06/29 00:30:09;;;;;;;2.20;1.30;;;22.40;94.60;22.20;99345.00;;;;343009;28;92604;-96
2021/06/29 00:30:21;;;;;;;3.15;1.35;;;22.30;94.60;22.30;99349.00;;;;344224;28;91307;-96
2021/06/29 00:30:33;;;;;;;4.13;1.23;;;22.40;94.70;22.40;99349.00;;;;344629;28;96438;-96
2021/06/29 00:30:44;;;;;;;3.75;1.48;;;22.40;94.70;22.40;99346.00;;;;343334;28;92133;-95
2021/06/29 00:30:56;;;;;;;2.55;1.38;;;22.40;94.70;22.40;99350.00;;;;343428;28;94702;-96
2021/06/29 00:31:08;;;;;;;2.50;1.40;;;22.40;94.60;22.40;99346.00;;;;345248;28;91320;-95
2021/06/29 00:31:20;;;;;;;2.28;1.17;;;22.40;94.60;22.40;99353.00;;;;344267;28;91970;-93
2021/06/29 00:31:32;;;;;;;2.17;1.25;;;22.40;94.60;22.40;99341.00;;;;344128;28;91123;-93
2021/06/29 00:31:44;;;;;;;2.45;1.50;;;22.40;94.60;22.40;99354.00;;;;346449;28;93179;-96
2021/06/29 00:31:56;;;;;;;3.17;1.50;;;22.40;94.60;22.40;99348.00;;;;342828;28;91144;-94
2021/06/29 00:32:08;;;;;;;2.78;1.33;;;22.40;94.60;22.20;99348.00;;;;345418;28;95000;-96
2021/06/29 00:32:20;;;;;;;2.25;1.10;;;22.40;94.40;22.20;99356.00;;;;344459;28;92380;-94
2021/06/29 00:32:32;;;;;;;2.17;1.05;;;22.40;94.40;22.20;99352.00;;;;345840;28;94684;-94
2021/06/29 00:32:45;;;;;;;2.83;1.30;;;22.40;94.50;22.30;99345.00;;;;343461;28;91202;-89
2021/06/29 00:32:57;;;;;;;2.70;1.25;;;22.40;94.40;22.30;99352.00;;;;343920;28;95927;-95
2021/06/29 00:33:09;;;;;;;2.20;1.27;;;22.40;94.80;22.30;99359.00;;;;343861;28;90438;-96
2021/06/29 00:33:20;;;;;;;2.60;1.52;;;22.40;94.50;22.30;99354.00;;;;343124;28;93743;-92
2021/06/29 00:33:33;;;;;;;2.63;1.50;;;22.40;94.60;22.30;99354.00;;;;344320;28;91142;-91
2021/06/29 00:33:44;;;;;;;2.78;1.42;;;22.30;94.50;22.30;99350.00;;;;344579;28;96131;-92
2021/06/29 00:33:56;;;;;;;2.30;1.40;;;22.40;94.50;22.30;99347.00;;;;344572;28;91055;-96
2021/06/29 00:34:08;;;;;;;2.63;1.65;;;22.40;94.60;22.40;99352.00;;;;344501;28;95469;-92
2021/06/29 00:34:20;;;;;;;3.03;1.38;;;22.40;94.60;22.40;99351.00;;;;343009;28;91204;-95
2021/06/29 00:34:32;;;;;;;3.10;1.17;;;22.40;94.60;22.30;99347.00;;;;346028;28;95918;-95
2021/06/29 00:34:43;;;;;;;3.65;0.98;;;22.40;94.60;22.40;99341.00;;;;344186;28;91043;-90
2021/06/29 00:34:55;;;;;;;2.75;1.13;;;22.30;94.60;22.40;99351.00;;;;344259;28;95107;-96
2021/06/29 00:35:08;;;;;;;2.40;1.08;;;22.40;94.60;22.40;99352.00;;;;344558;28;90302;-91
2021/06/29 00:35:20;;;;;;;1.77;1.17;;;22.40;94.60;22.40;99349.00;;;;344378;28;91921;-91
2021/06/29 00:35:32;;;;;;;1.85;1.17;;;22.40;94.60;22.30;99353.00;;;;344825;28;91184;-96
2021/06/29 00:35:43;;;;;;;2.15;1.23;;;22.40;94.80;22.30;99357.00;;;;347479;28;92737;-95
2021/06/29 00:35:55;;;;;;;3.00;1.10;;;22.40;94.60;22.30;99351.00;;;;343964;28;91179;-96
2021/06/29 00:36:10;;;;;;;3.15;1.30;;;22.40;94.60;22.30;99355.00;;;;344412;28;95679;-95
2021/06/29 00:36:21;;;;;;;2.03;1.20;;;22.40;94.60;22.30;99350.00;;;;345555;28;91739;-95
2021/06/29 00:36:33;;;;;;;1.92;1.13;;;22.40;94.60;22.40;99349.00;;;;347510;28;93104;-94
2021/06/29 00:36:45;;;;;;;2.00;1.20;;;22.40;94.70;22.20;99355.00;;;;347218;28;90991;-94
2021/06/29 00:36:57;;;;;;;2.80;1.25;;;22.40;94.70;22.20;99357.00;;;;345907;28;95690;-95
2021/06/29 00:37:09;;;;;;;2.90;1.33;;;22.40;94.70;22.20;99351.00;;;;345930;28;90272;-93
2021/06/29 00:37:21;;;;;;;2.45;1.20;;;22.40;94.70;22.00;99357.00;;;;343030;28;92064;-96
2021/06/29 00:37:35;;;;;;;2.28;1.20;;;22.30;94.70;22.00;99355.00;;;;344615;28;91178;-96
2021/06/29 00:37:47;;;;;;;2.25;1.10;;;22.30;94.70;22.10;99351.00;;;;345372;28;94861;-94
2021/06/29 00:37:59;;;;;;;2.92;1.35;;;22.30;94.70;22.30;99349.00;;;;345821;28;91056;-92
2021/06/29 00:38:11;;;;;;;2.90;1.33;;;22.30;94.80;22.30;99357.00;;;;347076;28;95336;-92
2021/06/29 00:38:23;;;;;;;2.65;1.25;;;22.30;94.70;22.30;99351.00;;;;342548;28;91246;-93
2021/06/29 00:38:34;;;;;;;3.20;1.30;;;22.30;94.60;22.40;99350.00;;;;343639;28;93037;-93
2021/06/29 00:38:47;;;;;;;3.40;1.38;;;22.30;94.60;22.50;99354.00;;;;344287;28;91110;-93
2021/06/29 00:38:58;;;;;;;2.70;1.30;;;22.30;94.60;22.40;99352.00;;;;343025;28;92975;-96
2021/06/29 00:39:10;;;;;;;2.03;1.50;;;22.40;94.70;22.30;99353.00;;;;344106;28;90345;-96
2021/06/29 00:39:22;;;;;;;1.73;1.25;;;22.40;94.60;22.30;99354.00;;;;345060;28;92073;-92
2021/06/29 00:39:34;;;;;;;1.65;1.10;;;22.40;94.60;22.40;99353.00;;;;344323;28;91036;-95
2021/06/29 00:39:46;;;;;;;2.42;1.10;;;22.40;94.60;22.50;99343.00;;;;345643;28;93141;-96
2021/06/29 00:39:58;;;;;;;3.33;1.67;;;22.40;94.60;22.50;99357.00;;;;344462;28;91075;-96
2021/06/29 00:40:10;;;;;;;2.90;1.55;;;22.40;94.90;22.30;99354.00;;;;345942;28;95476;-90
2021/06/29 00:40:22;;;;;;;1.85;1.45;;;22.40;94.60;22.30;99359.00;;;;344592;28;91032;-92
2021/06/29 00:40:34;;;;;;;1.88;1.38;;;22.40;94.50;22.40;99348.00;;;;344408;28;96339;-95
2021/06/29 00:40:46;;;;;;;2.28;1.60;;;22.40;94.50;22.30;99350.00;;;;344620;28;91061;-93
2021/06/29 00:40:57;;;;;;;2.60;1.55;;;22.40;94.50;22.30;99350.00;;;;343161;28;96217;-94
2021/06/29 00:41:10;;;;;;;2.72;1.40;;;22.40;94.50;22.40;99354.00;;;;345729;28;90643;-92
2021/06/29 00:41:21;;;;;;;2.92;1.33;;;22.40;94.50;22.40;99352.00;;;;342746;28;91773;-92
2021/06/29 00:41:33;;;;;;;2.47;1.35;;;22.40;94.80;22.40;99350.00;;;;342962;28;91449;-93
2021/06/29 00:41:45;;;;;;;2.67;1.58;;;22.40;94.50;22.40;99351.00;;;;343034;28;95448;-89
2021/06/29 00:41:57;;;;;;;2.63;1.52;;;22.40;94.50;22.40;99362.00;;;;344143;28;91147;-95
2021/06/29 00:42:09;;;;;;;2.65;1.40;;;22.40;94.50;22.50;99350.00;;;;344400;28;96067;-96
2021/06/29 00:42:21;;;;;;;2.28;1.30;;;22.40;94.50;22.40;99350.00;;;;344742;28;91038;-96
2021/06/29 00:42:33;;;;;;;2.20;1.30;;;22.40;94.50;22.50;99354.00;;;;344172;28;94665;-91
2021/06/29 00:42:44;;;;;;;2.20;1.30;;;22.40;94.50;22.40;99342.00;;;;344178;28;91109;-96
2021/06/29 00:42:56;;;;;;;2.33;1.30;;;22.40;94.50;22.30;99354.00;;;;345561;28;92626;-94
2021/06/29 00:43:08;;;;;;;3.05;1.35;;;22.50;94.60;22.30;99350.00;;;;345616;28;90282;-96
2021/06/29 00:43:20;;;;;;;3.30;1.45;;;22.40;94.50;22.30;99350.00;;;;344540;28;94842;-95
2021/06/29 00:43:32;;;;;;;2.83;1.35;;;22.40;94.50;22.30;99348.00;;;;345657;28;91222;-91
2021/06/29 00:43:47;;;;;;;3.00;1.42;;;22.50;94.60;22.40;99350.00;;;;343044;28;95479;-95
2021/06/29 00:43:59;;;;;;;2.60;1.50;;;22.40;94.50;22.30;99349.00;;;;345832;28;91226;-94
2021/06/29 00:44:21;;;;;;;1.98;1.17;;;22.40;94.50;22.30;99353.00;;;;341702;28;96058;-94
2021/06/29 00:44:33;;;;;;;2.17;1.48;;;22.50;94.60;22.20;99353.00;;;;344957;28;91192;-92
2021/06/29 00:44:46;;;;;;;2.42;1.50;;;22.40;94.60;22.20;99345.00;;;;344746;28;92876;-92
2021/06/29 00:44:58;;;;;;;2.45;1.45;;;22.40;94.60;22.30;99352.00;;;;345954;28;91063;-91
2021/06/29 00:45:11;;;;;;;2.40;1.20;;;22.40;94.60;22.30;99348.00;;;;347522;28;92967;-95
2021/06/29 00:45:23;;;;;;;1.85;1.20;;;22.40;94.60;22.20;99346.00;;;;344424;28;90458;-93
2021/06/29 00:45:34;;;;;;;2.25;1.40;;;22.40;94.60;22.20;99353.00;;;;345852;28;95473;-90
2021/06/29 00:45:46;;;;;;;2.80;1.40;;;22.40;94.60;22.20;99346.00;;;;345692;28;91332;-89
2021/06/29 00:45:58;;;;;;;2.50;1.27;;;22.40;94.70;22.20;99349.00;;;;347522;28;92568;-92
2021/06/29 00:46:10;;;;;;;2.00;1.15;;;22.40;94.70;22.20;99352.00;;;;347202;28;91455;-96
2021/06/29 00:46:22;;;;;;;1.52;0.98;;;22.40;94.60;22.30;99351.00;;;;345896;28;94640;-94
2021/06/29 00:46:34;;;;;;;2.28;0.98;;;22.40;94.70;22.30;99349.00;;;;345716;28;91067;-88
2021/06/29 00:46:47;;;;;;;2.17;0.95;;;22.40;94.60;22.30;99348.00;;;;345837;28;96360;-92
2021/06/29 00:46:58;;;;;;;2.42;1.45;;;22.40;94.70;22.20;99347.00;;;;345791;28;91126;-92
2021/06/29 00:47:10;;;;;;;2.15;1.60;;;22.40;94.70;22.30;99349.00;;;;347336;28;94936;-92
2021/06/29 00:47:22;;;;;;;2.28;1.67;;;22.40;94.70;22.20;99354.00;;;;345359;28;90521;-93
2021/06/29 00:47:34;;;;;;;2.10;1.40;;;22.40;94.70;22.20;99350.00;;;;346503;28;92251;-92
2021/06/29 00:47:46;;;;;;;2.13;1.20;;;22.40;94.70;22.30;99347.00;;;;343220;28;91152;-93
2021/06/29 00:47:59;;;;;;;1.98;1.20;;;22.40;94.70;22.30;99353.00;;;;344591;28;96013;-91
2021/06/29 00:48:10;;;;;;;2.08;1.30;;;22.40;94.70;22.30;99357.00;;;;344401;28;92181;-95
2021/06/29 00:48:22;;;;;;;1.90;1.20;;;22.40;94.70;22.30;99358.00;;;;341734;28;94841;-92
2021/06/29 00:48:34;;;;;;;3.28;1.00;;;22.40;94.80;22.30;99354.00;;;;343255;28;91068;-94
2021/06/29 00:48:47;;;;;;;3.75;1.17;;;22.40;94.70;22.20;99350.00;;;;341948;28;92790;-93
2021/06/29 00:48:58;;;;;;;4.00;1.50;;;22.40;94.70;22.30;99357.00;;;;343204;28;90981;-94
2021/06/29 00:49:10;;;;;;;2.67;1.50;;;22.40;94.70;22.20;99355.00;;;;344482;28;94000;-94
2021/06/29 00:49:22;;;;;;;3.08;1.63;;;22.40;94.70;22.40;99358.00;;;;344447;28;90461;-94
2021/06/29 00:49:34;;;;;;;2.85;1.52;;;22.40;94.70;22.30;99349.00;;;;344315;28;96615;-89
2021/06/29 00:49:45;;;;;;;2.53;1.33;;;22.40;94.70;22.10;99355.00;;;;343232;28;91072;-93
2021/06/29 00:49:57;;;;;;;3.08;1.30;;;22.40;94.70;22.00;99351.00;;;;344622;28;95935;-95
2021/06/29 00:50:10;;;;;;;4.60;1.35;;;22.40;94.80;22.00;99352.00;;;;344480;28;91396;-91
2021/06/29 00:50:22;;;;;;;4.53;1.38;;;22.40;94.90;21.90;99348.00;;;;345311;28;96447;-91
2021/06/29 00:50:35;;;;;;;3.13;1.52;;;22.40;94.80;22.00;99355.00;;;;343542;28;91204;-93
2021/06/29 00:50:46;;;;;;;2.85;1.45;;;22.40;94.80;22.10;99348.00;;;;345823;28;95735;-91
2021/06/29 00:50:58;;;;;;;2.15;1.35;;;22.30;94.80;22.20;99354.00;;;;344433;28;91448;-93
2021/06/29 00:51:17;;;;;;;1.98;1.25;;;22.30;94.80;22.30;99357.00;;;;346011;28;93576;-92
2021/06/29 00:51:29;;;;;;;3.17;1.48;;;22.40;94.90;22.40;99356.00;;;;344657;28;90335;-94
2021/06/29 00:51:41;;;;;;;3.03;1.42;;;22.40;94.90;22.10;99356.00;;;;343308;28;92254;-93
2021/06/29 00:51:53;;;;;;;2.40;1.17;;;22.40;95.00;22.10;99351.00;;;;347246;28;91098;-92
2021/06/29 00:52:09;;;;;;;2.50;1.17;;;22.40;94.90;22.10;99356.00;;;;344519;28;95511;-91
2021/06/29 00:52:21;;;;;;;1.80;1.17;;;22.40;94.90;22.00;99357.00;;;;342961;28;91240;-91
2021/06/29 00:52:32;;;;;;;1.83;1.10;;;22.30;94.90;22.10;99350.00;;;;342958;28;92911;-90
2021/06/29 00:52:44;;;;;;;2.17;1.40;;;22.30;94.90;22.10;99359.00;;;;344366;28;91166;-92
2021/06/29 00:52:56;;;;;;;2.67;1.55;;;22.30;94.90;22.00;99351.00;;;;343271;28;93019;-94
2021/06/29 00:53:10;;;;;;;2.92;1.40;;;22.30;95.00;21.90;99354.00;;;;343315;28;91014;-93
2021/06/29 00:53:22;;;;;;;4.80;1.63;;;22.30;95.00;21.90;99351.00;;;;343801;28;95696;-91
2021/06/29 00:53:36;;;;;;;3.85;1.65;;;22.30;95.00;22.00;99356.00;;;;343617;28;90541;-91
2021/06/29 00:53:48;;;;;;;2.78;1.60;;;22.30;95.00;22.10;99350.00;;;;344434;28;93819;-91
2021/06/29 00:53:59;;;;;;;2.65;1.50;;;22.30;95.00;22.10;99348.00;;;;345805;28;91073;-96
2021/06/29 00:54:12;;;;;;;2.35;1.48;;;22.30;95.00;22.10;99351.00;;;;345925;28;95671;-92
2021/06/29 00:54:24;;;;;;;2.30;1.50;;;22.30;95.00;22.10;99347.00;;;;347194;28;91129;-93
2021/06/29 00:54:36;;;;;;;2.72;1.50;;;22.30;95.00;22.10;99354.00;;;;348857;28;92659;-93
2021/06/29 00:54:48;;;;;;;4.00;1.58;;;22.30;95.00;22.10;99350.00;;;;345730;28;91123;-92
2021/06/29 00:55:00;;;;;;;4.38;1.77;;;22.30;95.00;22.10;99360.00;;;;347398;28;96238;-94
2021/06/29 00:55:13;;;;;;;2.97;1.45;;;22.30;95.00;22.10;99358.00;;;;345982;28;91299;-93